Terminal Aerodrome Forecast
Issued by NWS Wilmington, OH

Current Version | Previous Version | Graphics & Text | Print | Product List | Glossary On
Versions: 1 2 3 4 5 6 7 8 9 10 11 12 13 14 15 16 17 18 19 20 21 22 23 24 25
000
FTUS41 KILN 281700 AAC
TAFCVG
TAF AMD
KCVG 281705Z 2817/2918 23012KT P6SM -SHRA BKN025 OVC040
      TEMPO 2817/2818 3SM -SHRA BR BKN018
     FM281830 24011KT P6SM BKN040 OVC080
     FM282000 27010KT P6SM SCT100 BKN200
     FM290300 29007KT P6SM SCT200
     FM291500 28010KT P6SM SCT035=

USA.gov is the U.S. government's official web portal to all federal, state and local government web resources and services.